sensor_id;sensor_type;location;lat;lon;timestamp;P1;durP1;ratioP1;P2;durP2;ratioP2
51838;SDS011;37886;53.174;6.368;2023-06-04T00:01:58;14.55;;;12.35;;
51838;SDS011;37886;53.174;6.368;2023-06-04T00:04:27;16.02;;;13.68;;
51838;SDS011;37886;53.174;6.368;2023-06-04T00:06:53;20.05;;;13.10;;
51838;SDS011;37886;53.174;6.368;2023-06-04T00:09:19;19.85;;;14.15;;
51838;SDS011;37886;53.174;6.368;2023-06-04T00:11:45;17.73;;;13.25;;
51838;SDS011;37886;53.174;6.368;2023-06-04T00:14:11;14.23;;;12.80;;
51838;SDS011;37886;53.174;6.368;2023-06-04T00:16:38;14.75;;;13.25;;
51838;SDS011;37886;53.174;6.368;2023-06-04T00:19:03;14.85;;;13.35;;
51838;SDS011;37886;53.174;6.368;2023-06-04T00:21:29;16.15;;;12.02;;
51838;SDS011;37886;53.174;6.368;2023-06-04T00:23:55;16.70;;;13.38;;
51838;SDS011;37886;53.174;6.368;2023-06-04T00:26:20;15.10;;;13.27;;
51838;SDS011;37886;53.174;6.368;2023-06-04T00:28:46;16.90;;;13.52;;
51838;SDS011;37886;53.174;6.368;2023-06-04T00:31:12;18.90;;;12.80;;
51838;SDS011;37886;53.174;6.368;2023-06-04T00:33:38;17.35;;;13.05;;
51838;SDS011;37886;53.174;6.368;2023-06-04T00:36:04;18.40;;;12.98;;
51838;SDS011;37886;53.174;6.368;2023-06-04T00:38:30;19.65;;;13.18;;
51838;SDS011;37886;53.174;6.368;2023-06-04T00:40:56;17.85;;;13.43;;
51838;SDS011;37886;53.174;6.368;2023-06-04T00:43:22;18.13;;;14.38;;
51838;SDS011;37886;53.174;6.368;2023-06-04T00:45:52;17.65;;;13.07;;
51838;SDS011;37886;53.174;6.368;2023-06-04T00:48:19;17.00;;;13.57;;
51838;SDS011;37886;53.174;6.368;2023-06-04T00:50:46;23.60;;;16.42;;
51838;SDS011;37886;53.174;6.368;2023-06-04T00:53:12;20.05;;;15.13;;
51838;SDS011;37886;53.174;6.368;2023-06-04T00:55:38;23.27;;;15.10;;
51838;SDS011;37886;53.174;6.368;2023-06-04T00:58:04;22.48;;;16.00;;
51838;SDS011;37886;53.174;6.368;2023-06-04T01:00:30;16.63;;;13.80;;
51838;SDS011;37886;53.174;6.368;2023-06-04T01:02:57;22.15;;;14.00;;
51838;SDS011;37886;53.174;6.368;2023-06-04T01:08:04;17.35;;;14.18;;
51838;SDS011;37886;53.174;6.368;2023-06-04T01:10:34;16.75;;;14.07;;
51838;SDS011;37886;53.174;6.368;2023-06-04T01:13:02;18.95;;;13.80;;
51838;SDS011;37886;53.174;6.368;2023-06-04T01:15:28;16.02;;;13.95;;
51838;SDS011;37886;53.174;6.368;2023-06-04T01:18:00;17.08;;;12.95;;
51838;SDS011;37886;53.174;6.368;2023-06-04T01:23:14;17.27;;;12.73;;
51838;SDS011;37886;53.174;6.368;2023-06-04T01:25:46;16.30;;;13.25;;
51838;SDS011;37886;53.174;6.368;2023-06-04T01:28:14;17.10;;;13.40;;
51838;SDS011;37886;53.174;6.368;2023-06-04T01:30:43;17.20;;;13.90;;
51838;SDS011;37886;53.174;6.368;2023-06-04T01:33:11;14.68;;;12.13;;
51838;SDS011;37886;53.174;6.368;2023-06-04T01:35:39;21.67;;;13.68;;
51838;SDS011;37886;53.174;6.368;2023-06-04T01:38:05;16.67;;;12.40;;
51838;SDS011;37886;53.174;6.368;2023-06-04T01:40:31;18.52;;;13.18;;
51838;SDS011;37886;53.174;6.368;2023-06-04T01:42:57;16.02;;;13.60;;
51838;SDS011;37886;53.174;6.368;2023-06-04T01:45:24;19.83;;;14.07;;
51838;SDS011;37886;53.174;6.368;2023-06-04T01:47:51;18.20;;;14.40;;
51838;SDS011;37886;53.174;6.368;2023-06-04T01:50:17;20.25;;;14.02;;
51838;SDS011;37886;53.174;6.368;2023-06-04T01:52:43;19.35;;;13.75;;
51838;SDS011;37886;53.174;6.368;2023-06-04T01:55:10;19.55;;;14.85;;
51838;SDS011;37886;53.174;6.368;2023-06-04T01:57:38;18.73;;;15.02;;
51838;SDS011;37886;53.174;6.368;2023-06-04T02:00:06;17.80;;;15.35;;
51838;SDS011;37886;53.174;6.368;2023-06-04T02:02:34;15.00;;;13.45;;
51838;SDS011;37886;53.174;6.368;2023-06-04T02:05:05;20.13;;;15.30;;
51838;SDS011;37886;53.174;6.368;2023-06-04T02:07:38;18.48;;;13.75;;
51838;SDS011;37886;53.174;6.368;2023-06-04T02:10:06;19.38;;;13.77;;
51838;SDS011;37886;53.174;6.368;2023-06-04T02:12:52;17.65;;;15.57;;
51838;SDS011;37886;53.174;6.368;2023-06-04T02:15:20;21.73;;;14.60;;
51838;SDS011;37886;53.174;6.368;2023-06-04T02:17:47;18.67;;;15.75;;
51838;SDS011;37886;53.174;6.368;2023-06-04T02:20:12;17.63;;;14.35;;
51838;SDS011;37886;53.174;6.368;2023-06-04T02:22:38;16.83;;;14.20;;
51838;SDS011;37886;53.174;6.368;2023-06-04T02:25:04;17.70;;;14.00;;
51838;SDS011;37886;53.174;6.368;2023-06-04T02:27:30;16.25;;;13.95;;
51838;SDS011;37886;53.174;6.368;2023-06-04T02:29:56;15.93;;;14.40;;
51838;SDS011;37886;53.174;6.368;2023-06-04T02:32:22;19.17;;;15.18;;
51838;SDS011;37886;53.174;6.368;2023-06-04T02:34:47;15.10;;;13.70;;
51838;SDS011;37886;53.174;6.368;2023-06-04T02:37:14;16.45;;;13.77;;
51838;SDS011;37886;53.174;6.368;2023-06-04T02:39:40;15.05;;;12.98;;
51838;SDS011;37886;53.174;6.368;2023-06-04T02:42:06;17.02;;;12.43;;
51838;SDS011;37886;53.174;6.368;2023-06-04T02:44:32;18.40;;;13.70;;
51838;SDS011;37886;53.174;6.368;2023-06-04T02:46:57;14.52;;;13.02;;
51838;SDS011;37886;53.174;6.368;2023-06-04T02:49:23;15.57;;;12.15;;
51838;SDS011;37886;53.174;6.368;2023-06-04T02:51:50;19.08;;;14.02;;
51838;SDS011;37886;53.174;6.368;2023-06-04T02:54:16;21.20;;;13.55;;
51838;SDS011;37886;53.174;6.368;2023-06-04T02:56:42;14.38;;;12.93;;
51838;SDS011;37886;53.174;6.368;2023-06-04T02:59:08;12.55;;;11.50;;
51838;SDS011;37886;53.174;6.368;2023-06-04T03:01:34;13.70;;;11.70;;
51838;SDS011;37886;53.174;6.368;2023-06-04T03:04:00;17.33;;;12.43;;
51838;SDS011;37886;53.174;6.368;2023-06-04T03:06:29;13.48;;;12.23;;
51838;SDS011;37886;53.174;6.368;2023-06-04T03:08:57;14.30;;;11.48;;
51838;SDS011;37886;53.174;6.368;2023-06-04T03:11:23;12.18;;;10.95;;
51838;SDS011;37886;53.174;6.368;2023-06-04T03:13:52;15.23;;;11.88;;
51838;SDS011;37886;53.174;6.368;2023-06-04T03:16:18;16.35;;;10.93;;
51838;SDS011;37886;53.174;6.368;2023-06-04T03:18:44;16.60;;;11.85;;
51838;SDS011;37886;53.174;6.368;2023-06-04T03:21:10;12.05;;;10.95;;
51838;SDS011;37886;53.174;6.368;2023-06-04T03:23:39;11.68;;;10.55;;
51838;SDS011;37886;53.174;6.368;2023-06-04T03:26:05;17.65;;;12.27;;
51838;SDS011;37886;53.174;6.368;2023-06-04T03:28:32;12.80;;;11.60;;
51838;SDS011;37886;53.174;6.368;2023-06-04T03:30:58;11.70;;;10.45;;
51838;SDS011;37886;53.174;6.368;2023-06-04T03:33:25;11.70;;;10.55;;
51838;SDS011;37886;53.174;6.368;2023-06-04T03:35:51;10.85;;;9.93;;
51838;SDS011;37886;53.174;6.368;2023-06-04T03:38:24;11.65;;;10.68;;
51838;SDS011;37886;53.174;6.368;2023-06-04T03:40:50;10.57;;;9.73;;
51838;SDS011;37886;53.174;6.368;2023-06-04T03:43:18;10.95;;;9.73;;
51838;SDS011;37886;53.174;6.368;2023-06-04T03:45:44;11.05;;;9.93;;
51838;SDS011;37886;53.174;6.368;2023-06-04T03:48:10;11.40;;;10.43;;
51838;SDS011;37886;53.174;6.368;2023-06-04T03:50:38;13.98;;;12.55;;
51838;SDS011;37886;53.174;6.368;2023-06-04T03:53:04;14.57;;;12.70;;
51838;SDS011;37886;53.174;6.368;2023-06-04T03:55:32;14.45;;;13.18;;
51838;SDS011;37886;53.174;6.368;2023-06-04T03:57:58;15.70;;;14.30;;
51838;SDS011;37886;53.174;6.368;2023-06-04T04:00:24;19.65;;;17.25;;
51838;SDS011;37886;53.174;6.368;2023-06-04T04:02:50;17.77;;;16.17;;
51838;SDS011;37886;53.174;6.368;2023-06-04T04:05:16;16.50;;;14.80;;
51838;SDS011;37886;53.174;6.368;2023-06-04T04:07:42;21.02;;;19.35;;
51838;SDS011;37886;53.174;6.368;2023-06-04T04:10:07;39.58;;;36.22;;
51838;SDS011;37886;53.174;6.368;2023-06-04T04:12:33;75.75;;;70.55;;
51838;SDS011;37886;53.174;6.368;2023-06-04T04:14:59;140.50;;;131.07;;
51838;SDS011;37886;53.174;6.368;2023-06-04T04:17:25;200.27;;;187.13;;
51838;SDS011;37886;53.174;6.368;2023-06-04T04:19:51;161.23;;;149.65;;
51838;SDS011;37886;53.174;6.368;2023-06-04T04:22:17;201.35;;;188.25;;
51838;SDS011;37886;53.174;6.368;2023-06-04T04:24:43;185.02;;;172.85;;
51838;SDS011;37886;53.174;6.368;2023-06-04T04:27:09;138.00;;;128.73;;
51838;SDS011;37886;53.174;6.368;2023-06-04T04:29:37;93.47;;;87.22;;
51838;SDS011;37886;53.174;6.368;2023-06-04T04:32:04;74.50;;;69.13;;
51838;SDS011;37886;53.174;6.368;2023-06-04T04:34:36;66.50;;;61.85;;
51838;SDS011;37886;53.174;6.368;2023-06-04T04:37:04;70.95;;;65.10;;
51838;SDS011;37886;53.174;6.368;2023-06-04T04:39:33;67.32;;;62.58;;
51838;SDS011;37886;53.174;6.368;2023-06-04T04:41:59;76.13;;;70.30;;
51838;SDS011;37886;53.174;6.368;2023-06-04T04:44:25;66.80;;;61.83;;
51838;SDS011;37886;53.174;6.368;2023-06-04T04:46:51;83.80;;;77.60;;
51838;SDS011;37886;53.174;6.368;2023-06-04T04:49:17;84.45;;;78.05;;
51838;SDS011;37886;53.174;6.368;2023-06-04T04:51:42;82.47;;;76.60;;
51838;SDS011;37886;53.174;6.368;2023-06-04T04:54:08;91.47;;;84.68;;
51838;SDS011;37886;53.174;6.368;2023-06-04T04:56:34;83.72;;;77.72;;
51838;SDS011;37886;53.174;6.368;2023-06-04T04:59:00;107.05;;;99.10;;
51838;SDS011;37886;53.174;6.368;2023-06-04T05:01:26;122.70;;;113.65;;
51838;SDS011;37886;53.174;6.368;2023-06-04T05:03:52;121.75;;;112.90;;
51838;SDS011;37886;53.174;6.368;2023-06-04T05:06:18;147.52;;;137.60;;
51838;SDS011;37886;53.174;6.368;2023-06-04T05:08:45;159.55;;;148.30;;
51838;SDS011;37886;53.174;6.368;2023-06-04T05:11:10;163.18;;;151.73;;
51838;SDS011;37886;53.174;6.368;2023-06-04T05:13:36;171.38;;;158.82;;
51838;SDS011;37886;53.174;6.368;2023-06-04T05:16:02;220.60;;;205.55;;
51838;SDS011;37886;53.174;6.368;2023-06-04T05:18:36;200.15;;;185.85;;
51838;SDS011;37886;53.174;6.368;2023-06-04T05:21:05;187.15;;;174.05;;
51838;SDS011;37886;53.174;6.368;2023-06-04T05:23:32;191.98;;;178.43;;
51838;SDS011;37886;53.174;6.368;2023-06-04T05:25:59;144.43;;;133.13;;
51838;SDS011;37886;53.174;6.368;2023-06-04T05:28:26;177.10;;;164.15;;
51838;SDS011;37886;53.174;6.368;2023-06-04T05:30:53;117.30;;;108.45;;
51838;SDS011;37886;53.174;6.368;2023-06-04T05:33:28;106.68;;;98.60;;
51838;SDS011;37886;53.174;6.368;2023-06-04T05:35:55;93.95;;;86.38;;
51838;SDS011;37886;53.174;6.368;2023-06-04T05:38:23;109.05;;;100.68;;
51838;SDS011;37886;53.174;6.368;2023-06-04T05:40:54;75.40;;;69.22;;
51838;SDS011;37886;53.174;6.368;2023-06-04T05:43:20;80.13;;;74.17;;
51838;SDS011;37886;53.174;6.368;2023-06-04T05:45:46;63.53;;;58.30;;
51838;SDS011;37886;53.174;6.368;2023-06-04T05:48:12;63.70;;;58.20;;
51838;SDS011;37886;53.174;6.368;2023-06-04T05:50:38;43.03;;;38.85;;
51838;SDS011;37886;53.174;6.368;2023-06-04T05:53:04;35.38;;;31.58;;
51838;SDS011;37886;53.174;6.368;2023-06-04T05:55:30;36.60;;;32.63;;
51838;SDS011;37886;53.174;6.368;2023-06-04T05:57:56;35.30;;;27.15;;
51838;SDS011;37886;53.174;6.368;2023-06-04T06:00:21;40.20;;;36.20;;
51838;SDS011;37886;53.174;6.368;2023-06-04T06:02:49;39.60;;;35.75;;
51838;SDS011;37886;53.174;6.368;2023-06-04T06:05:15;48.13;;;43.30;;
51838;SDS011;37886;53.174;6.368;2023-06-04T06:07:41;44.13;;;39.97;;
51838;SDS011;37886;53.174;6.368;2023-06-04T06:10:07;37.13;;;29.88;;
51838;SDS011;37886;53.174;6.368;2023-06-04T06:12:33;55.90;;;51.13;;
51838;SDS011;37886;53.174;6.368;2023-06-04T06:14:59;58.45;;;53.53;;
51838;SDS011;37886;53.174;6.368;2023-06-04T06:17:25;41.88;;;36.42;;
51838;SDS011;37886;53.174;6.368;2023-06-04T06:19:51;65.75;;;60.00;;
51838;SDS011;37886;53.174;6.368;2023-06-04T06:22:17;59.17;;;54.25;;
51838;SDS011;37886;53.174;6.368;2023-06-04T06:24:43;53.53;;;49.15;;
51838;SDS011;37886;53.174;6.368;2023-06-04T06:27:10;63.45;;;57.50;;
51838;SDS011;37886;53.174;6.368;2023-06-04T06:29:36;60.88;;;55.33;;
51838;SDS011;37886;53.174;6.368;2023-06-04T06:32:02;77.97;;;71.95;;
51838;SDS011;37886;53.174;6.368;2023-06-04T06:34:28;74.05;;;68.30;;
51838;SDS011;37886;53.174;6.368;2023-06-04T06:36:53;55.33;;;50.85;;
51838;SDS011;37886;53.174;6.368;2023-06-04T06:39:19;65.10;;;59.50;;
51838;SDS011;37886;53.174;6.368;2023-06-04T06:41:45;84.78;;;78.70;;
51838;SDS011;37886;53.174;6.368;2023-06-04T06:44:11;86.57;;;80.13;;
51838;SDS011;37886;53.174;6.368;2023-06-04T06:46:37;55.85;;;51.72;;
51838;SDS011;37886;53.174;6.368;2023-06-04T06:49:03;60.03;;;55.35;;
51838;SDS011;37886;53.174;6.368;2023-06-04T06:51:29;59.35;;;54.97;;
51838;SDS011;37886;53.174;6.368;2023-06-04T06:53:55;70.85;;;65.63;;
51838;SDS011;37886;53.174;6.368;2023-06-04T06:56:21;42.58;;;39.03;;
51838;SDS011;37886;53.174;6.368;2023-06-04T06:58:47;53.72;;;49.42;;
51838;SDS011;37886;53.174;6.368;2023-06-04T07:01:13;43.78;;;40.13;;
51838;SDS011;37886;53.174;6.368;2023-06-04T07:03:38;69.00;;;63.80;;
51838;SDS011;37886;53.174;6.368;2023-06-04T07:06:07;60.80;;;56.33;;
51838;SDS011;37886;53.174;6.368;2023-06-04T07:08:33;69.70;;;64.88;;
51838;SDS011;37886;53.174;6.368;2023-06-04T07:11:00;53.53;;;49.08;;
51838;SDS011;37886;53.174;6.368;2023-06-04T07:13:28;42.40;;;38.25;;
51838;SDS011;37886;53.174;6.368;2023-06-04T07:15:54;48.38;;;44.58;;
51838;SDS011;37886;53.174;6.368;2023-06-04T07:18:19;47.85;;;44.28;;
51838;SDS011;37886;53.174;6.368;2023-06-04T07:20:45;42.00;;;38.47;;
51838;SDS011;37886;53.174;6.368;2023-06-04T07:23:11;47.03;;;43.40;;
51838;SDS011;37886;53.174;6.368;2023-06-04T07:25:40;53.78;;;50.00;;
51838;SDS011;37886;53.174;6.368;2023-06-04T07:28:05;42.88;;;39.42;;
51838;SDS011;37886;53.174;6.368;2023-06-04T07:30:31;38.20;;;34.55;;
51838;SDS011;37886;53.174;6.368;2023-06-04T07:32:57;47.65;;;44.30;;
51838;SDS011;37886;53.174;6.368;2023-06-04T07:35:23;40.75;;;36.97;;
51838;SDS011;37886;53.174;6.368;2023-06-04T07:37:49;49.85;;;45.88;;
51838;SDS011;37886;53.174;6.368;2023-06-04T07:40:15;45.20;;;41.17;;
51838;SDS011;37886;53.174;6.368;2023-06-04T07:42:42;51.50;;;47.78;;
51838;SDS011;37886;53.174;6.368;2023-06-04T07:45:08;51.17;;;47.45;;
51838;SDS011;37886;53.174;6.368;2023-06-04T07:47:37;35.00;;;31.88;;
51838;SDS011;37886;53.174;6.368;2023-06-04T07:50:04;47.80;;;44.15;;
51838;SDS011;37886;53.174;6.368;2023-06-04T07:52:31;43.45;;;39.47;;
51838;SDS011;37886;53.174;6.368;2023-06-04T07:54:57;36.65;;;33.85;;
51838;SDS011;37886;53.174;6.368;2023-06-04T07:57:24;33.58;;;30.67;;
51838;SDS011;37886;53.174;6.368;2023-06-04T07:59:50;36.83;;;33.85;;
51838;SDS011;37886;53.174;6.368;2023-06-04T08:02:16;34.85;;;32.10;;
51838;SDS011;37886;53.174;6.368;2023-06-04T08:04:42;28.95;;;26.40;;
51838;SDS011;37886;53.174;6.368;2023-06-04T08:07:08;38.58;;;35.70;;
51838;SDS011;37886;53.174;6.368;2023-06-04T08:09:34;41.20;;;37.97;;
51838;SDS011;37886;53.174;6.368;2023-06-04T08:12:00;52.03;;;48.55;;
51838;SDS011;37886;53.174;6.368;2023-06-04T08:14:26;73.38;;;68.28;;
51838;SDS011;37886;53.174;6.368;2023-06-04T08:16:52;55.45;;;51.38;;
51838;SDS011;37886;53.174;6.368;2023-06-04T08:19:19;114.53;;;106.70;;
51838;SDS011;37886;53.174;6.368;2023-06-04T08:21:45;102.63;;;95.50;;
51838;SDS011;37886;53.174;6.368;2023-06-04T08:24:12;106.53;;;99.45;;
51838;SDS011;37886;53.174;6.368;2023-06-04T08:26:37;124.35;;;116.25;;
51838;SDS011;37886;53.174;6.368;2023-06-04T08:29:09;124.20;;;116.35;;
51838;SDS011;37886;53.174;6.368;2023-06-04T08:31:38;259.27;;;243.15;;
51838;SDS011;37886;53.174;6.368;2023-06-04T08:34:04;126.13;;;117.70;;
51838;SDS011;37886;53.174;6.368;2023-06-04T08:36:30;171.65;;;160.63;;
51838;SDS011;37886;53.174;6.368;2023-06-04T08:38:57;144.20;;;134.85;;
51838;SDS011;37886;53.174;6.368;2023-06-04T08:41:31;159.50;;;148.90;;
51838;SDS011;37886;53.174;6.368;2023-06-04T08:44:01;284.67;;;266.98;;
51838;SDS011;37886;53.174;6.368;2023-06-04T08:46:31;252.68;;;237.30;;
51838;SDS011;37886;53.174;6.368;2023-06-04T08:48:59;130.23;;;121.57;;
51838;SDS011;37886;53.174;6.368;2023-06-04T08:51:30;147.77;;;138.43;;
51838;SDS011;37886;53.174;6.368;2023-06-04T08:53:59;142.93;;;133.45;;
51838;SDS011;37886;53.174;6.368;2023-06-04T08:56:25;123.63;;;115.93;;
51838;SDS011;37886;53.174;6.368;2023-06-04T08:58:55;142.82;;;133.32;;
51838;SDS011;37886;53.174;6.368;2023-06-04T09:01:24;159.73;;;149.75;;
51838;SDS011;37886;53.174;6.368;2023-06-04T09:03:50;142.88;;;133.48;;
51838;SDS011;37886;53.174;6.368;2023-06-04T09:06:16;151.05;;;141.45;;
51838;SDS011;37886;53.174;6.368;2023-06-04T09:08:43;171.32;;;160.27;;
51838;SDS011;37886;53.174;6.368;2023-06-04T09:11:10;172.98;;;162.00;;
51838;SDS011;37886;53.174;6.368;2023-06-04T09:13:38;144.90;;;135.52;;
51838;SDS011;37886;53.174;6.368;2023-06-04T09:16:05;138.60;;;129.68;;
51838;SDS011;37886;53.174;6.368;2023-06-04T09:18:31;262.20;;;245.50;;
51838;SDS011;37886;53.174;6.368;2023-06-04T09:21:01;231.73;;;217.60;;
51838;SDS011;37886;53.174;6.368;2023-06-04T09:23:27;256.30;;;240.30;;
51838;SDS011;37886;53.174;6.368;2023-06-04T09:25:53;96.85;;;90.85;;
51838;SDS011;37886;53.174;6.368;2023-06-04T09:28:19;94.47;;;88.35;;
51838;SDS011;37886;53.174;6.368;2023-06-04T09:30:54;99.47;;;93.18;;
51838;SDS011;37886;53.174;6.368;2023-06-04T09:33:20;110.88;;;103.68;;
51838;SDS011;37886;53.174;6.368;2023-06-04T09:35:53;117.65;;;110.28;;
51838;SDS011;37886;53.174;6.368;2023-06-04T09:38:20;97.07;;;91.03;;
51838;SDS011;37886;53.174;6.368;2023-06-04T09:40:47;107.60;;;101.03;;
51838;SDS011;37886;53.174;6.368;2023-06-04T09:43:21;99.85;;;93.57;;
51838;SDS011;37886;53.174;6.368;2023-06-04T09:45:48;95.00;;;88.80;;
51838;SDS011;37886;53.174;6.368;2023-06-04T09:48:20;103.38;;;96.93;;
51838;SDS011;37886;53.174;6.368;2023-06-04T09:50:46;97.85;;;91.25;;
51838;SDS011;37886;53.174;6.368;2023-06-04T09:53:17;93.47;;;87.82;;
51838;SDS011;37886;53.174;6.368;2023-06-04T09:55:59;76.45;;;71.47;;
51838;SDS011;37886;53.174;6.368;2023-06-04T09:58:28;76.68;;;71.80;;
51838;SDS011;37886;53.174;6.368;2023-06-04T10:00:55;68.72;;;63.95;;
51838;SDS011;37886;53.174;6.368;2023-06-04T10:03:25;94.78;;;88.78;;
51838;SDS011;37886;53.174;6.368;2023-06-04T10:05:58;65.60;;;61.42;;
51838;SDS011;37886;53.174;6.368;2023-06-04T10:08:26;67.28;;;62.63;;
51838;SDS011;37886;53.174;6.368;2023-06-04T10:10:56;93.65;;;87.88;;
51838;SDS011;37886;53.174;6.368;2023-06-04T10:13:26;69.07;;;64.60;;
51838;SDS011;37886;53.174;6.368;2023-06-04T10:15:56;82.45;;;77.40;;
51838;SDS011;37886;53.174;6.368;2023-06-04T10:18:24;89.90;;;84.25;;
51838;SDS011;37886;53.174;6.368;2023-06-04T10:20:52;100.60;;;94.57;;
51838;SDS011;37886;53.174;6.368;2023-06-04T10:23:20;80.20;;;74.90;;
51838;SDS011;37886;53.174;6.368;2023-06-04T10:25:48;80.97;;;75.90;;
51838;SDS011;37886;53.174;6.368;2023-06-04T10:28:15;92.40;;;86.70;;
51838;SDS011;37886;53.174;6.368;2023-06-04T10:30:44;82.25;;;77.25;;
51838;SDS011;37886;53.174;6.368;2023-06-04T10:33:10;87.00;;;81.65;;
51838;SDS011;37886;53.174;6.368;2023-06-04T10:35:36;63.00;;;58.80;;
51838;SDS011;37886;53.174;6.368;2023-06-04T10:38:06;111.07;;;104.10;;
51838;SDS011;37886;53.174;6.368;2023-06-04T10:40:36;127.93;;;119.68;;
51838;SDS011;37886;53.174;6.368;2023-06-04T10:43:12;123.00;;;115.38;;
51838;SDS011;37886;53.174;6.368;2023-06-04T10:45:41;93.43;;;87.60;;
51838;SDS011;37886;53.174;6.368;2023-06-04T10:48:08;81.68;;;76.68;;
51838;SDS011;37886;53.174;6.368;2023-06-04T10:50:36;67.53;;;63.30;;
51838;SDS011;37886;53.174;6.368;2023-06-04T10:53:17;55.75;;;52.22;;
51838;SDS011;37886;53.174;6.368;2023-06-04T10:55:44;62.63;;;58.63;;
51838;SDS011;37886;53.174;6.368;2023-06-04T10:58:11;51.13;;;47.90;;
51838;SDS011;37886;53.174;6.368;2023-06-04T11:00:37;41.47;;;38.78;;
51838;SDS011;37886;53.174;6.368;2023-06-04T11:03:07;44.80;;;41.95;;
51838;SDS011;37886;53.174;6.368;2023-06-04T11:05:39;38.05;;;35.55;;
51838;SDS011;37886;53.174;6.368;2023-06-04T11:08:06;44.83;;;41.60;;
51838;SDS011;37886;53.174;6.368;2023-06-04T11:10:33;43.70;;;41.00;;
51838;SDS011;37886;53.174;6.368;2023-06-04T11:13:03;45.55;;;42.60;;
51838;SDS011;37886;53.174;6.368;2023-06-04T11:15:40;37.53;;;34.90;;
51838;SDS011;37886;53.174;6.368;2023-06-04T11:18:07;42.58;;;39.88;;
51838;SDS011;37886;53.174;6.368;2023-06-04T11:20:33;41.63;;;39.00;;
51838;SDS011;37886;53.174;6.368;2023-06-04T11:22:59;51.55;;;48.22;;
51838;SDS011;37886;53.174;6.368;2023-06-04T11:25:28;44.10;;;41.33;;
51838;SDS011;37886;53.174;6.368;2023-06-04T11:27:56;32.72;;;30.38;;
51838;SDS011;37886;53.174;6.368;2023-06-04T11:30:23;44.40;;;41.50;;
51838;SDS011;37886;53.174;6.368;2023-06-04T11:32:49;40.50;;;37.83;;
51838;SDS011;37886;53.174;6.368;2023-06-04T11:35:15;28.63;;;26.60;;
51838;SDS011;37886;53.174;6.368;2023-06-04T11:37:41;32.60;;;30.48;;
51838;SDS011;37886;53.174;6.368;2023-06-04T11:40:18;37.60;;;35.08;;
51838;SDS011;37886;53.174;6.368;2023-06-04T11:42:47;26.00;;;23.98;;
51838;SDS011;37886;53.174;6.368;2023-06-04T11:45:15;25.10;;;23.48;;
51838;SDS011;37886;53.174;6.368;2023-06-04T11:47:52;26.30;;;24.40;;
51838;SDS011;37886;53.174;6.368;2023-06-04T11:50:20;32.88;;;30.42;;
51838;SDS011;37886;53.174;6.368;2023-06-04T11:52:47;32.53;;;30.45;;
51838;SDS011;37886;53.174;6.368;2023-06-04T11:55:13;27.38;;;25.33;;
51838;SDS011;37886;53.174;6.368;2023-06-04T11:57:42;21.55;;;20.10;;
51838;SDS011;37886;53.174;6.368;2023-06-04T12:00:08;15.57;;;14.48;;
51838;SDS011;37886;53.174;6.368;2023-06-04T12:02:48;25.23;;;23.58;;
51838;SDS011;37886;53.174;6.368;2023-06-04T12:05:20;19.67;;;18.23;;
51838;SDS011;37886;53.174;6.368;2023-06-04T12:08:03;21.35;;;19.75;;
51838;SDS011;37886;53.174;6.368;2023-06-04T12:10:36;18.83;;;17.52;;
51838;SDS011;37886;53.174;6.368;2023-06-04T12:13:02;17.92;;;16.70;;
51838;SDS011;37886;53.174;6.368;2023-06-04T12:15:28;18.15;;;16.77;;
51838;SDS011;37886;53.174;6.368;2023-06-04T12:17:54;16.40;;;15.20;;
51838;SDS011;37886;53.174;6.368;2023-06-04T12:23:01;18.20;;;16.65;;
51838;SDS011;37886;53.174;6.368;2023-06-04T12:25:28;17.98;;;16.48;;
51838;SDS011;37886;53.174;6.368;2023-06-04T12:27:55;17.90;;;16.58;;
51838;SDS011;37886;53.174;6.368;2023-06-04T12:30:21;36.65;;;34.13;;
51838;SDS011;37886;53.174;6.368;2023-06-04T12:32:47;17.33;;;16.23;;
51838;SDS011;37886;53.174;6.368;2023-06-04T12:35:13;14.80;;;13.63;;
51838;SDS011;37886;53.174;6.368;2023-06-04T12:37:42;15.57;;;14.20;;
51838;SDS011;37886;53.174;6.368;2023-06-04T12:40:08;62.17;;;57.90;;
51838;SDS011;37886;53.174;6.368;2023-06-04T12:42:34;24.77;;;22.83;;
51838;SDS011;37886;53.174;6.368;2023-06-04T12:45:00;34.58;;;32.10;;
51838;SDS011;37886;53.174;6.368;2023-06-04T12:47:26;76.03;;;70.82;;
51838;SDS011;37886;53.174;6.368;2023-06-04T12:49:51;24.55;;;22.75;;
51838;SDS011;37886;53.174;6.368;2023-06-04T12:52:17;49.28;;;46.15;;
51838;SDS011;37886;53.174;6.368;2023-06-04T12:54:43;84.18;;;78.82;;
51838;SDS011;37886;53.174;6.368;2023-06-04T12:57:09;21.10;;;19.38;;
51838;SDS011;37886;53.174;6.368;2023-06-04T12:59:35;105.07;;;98.30;;
51838;SDS011;37886;53.174;6.368;2023-06-04T13:02:01;109.45;;;102.03;;
51838;SDS011;37886;53.174;6.368;2023-06-04T13:04:27;86.22;;;80.40;;
51838;SDS011;37886;53.174;6.368;2023-06-04T13:06:52;101.10;;;94.72;;
51838;SDS011;37886;53.174;6.368;2023-06-04T13:09:23;81.85;;;76.57;;
51838;SDS011;37886;53.174;6.368;2023-06-04T13:11:50;101.70;;;95.03;;
51838;SDS011;37886;53.174;6.368;2023-06-04T13:14:16;74.72;;;69.82;;
51838;SDS011;37886;53.174;6.368;2023-06-04T13:16:42;66.45;;;62.15;;
51838;SDS011;37886;53.174;6.368;2023-06-04T13:19:07;72.50;;;67.80;;
51838;SDS011;37886;53.174;6.368;2023-06-04T13:21:34;80.45;;;75.30;;
51838;SDS011;37886;53.174;6.368;2023-06-04T13:24:00;69.50;;;64.68;;
51838;SDS011;37886;53.174;6.368;2023-06-04T13:26:26;97.35;;;90.97;;
51838;SDS011;37886;53.174;6.368;2023-06-04T13:28:52;85.18;;;79.72;;
51838;SDS011;37886;53.174;6.368;2023-06-04T13:31:17;121.40;;;113.72;;
51838;SDS011;37886;53.174;6.368;2023-06-04T13:33:43;69.20;;;64.70;;
51838;SDS011;37886;53.174;6.368;2023-06-04T13:36:09;93.38;;;87.50;;
51838;SDS011;37886;53.174;6.368;2023-06-04T13:38:35;87.00;;;81.28;;
51838;SDS011;37886;53.174;6.368;2023-06-04T13:41:01;68.20;;;63.35;;
51838;SDS011;37886;53.174;6.368;2023-06-04T13:43:26;126.10;;;116.88;;
51838;SDS011;37886;53.174;6.368;2023-06-04T13:45:52;161.73;;;149.82;;
51838;SDS011;37886;53.174;6.368;2023-06-04T13:48:18;62.17;;;58.05;;
51838;SDS011;37886;53.174;6.368;2023-06-04T13:50:44;73.10;;;68.15;;
51838;SDS011;37886;53.174;6.368;2023-06-04T13:53:10;128.93;;;120.18;;
51838;SDS011;37886;53.174;6.368;2023-06-04T13:55:38;62.63;;;58.42;;
51838;SDS011;37886;53.174;6.368;2023-06-04T13:58:04;83.05;;;77.40;;
51838;SDS011;37886;53.174;6.368;2023-06-04T14:00:30;138.13;;;128.65;;
51838;SDS011;37886;53.174;6.368;2023-06-04T14:02:56;56.22;;;52.35;;
51838;SDS011;37886;53.174;6.368;2023-06-04T14:05:23;60.30;;;56.45;;
51838;SDS011;37886;53.174;6.368;2023-06-04T14:07:50;67.68;;;63.15;;
51838;SDS011;37886;53.174;6.368;2023-06-04T14:10:16;92.07;;;85.82;;
51838;SDS011;37886;53.174;6.368;2023-06-04T14:12:41;92.38;;;86.05;;
51838;SDS011;37886;53.174;6.368;2023-06-04T14:15:09;88.57;;;82.78;;
51838;SDS011;37886;53.174;6.368;2023-06-04T14:17:38;240.20;;;224.77;;
51838;SDS011;37886;53.174;6.368;2023-06-04T14:20:06;141.15;;;131.75;;
51838;SDS011;37886;53.174;6.368;2023-06-04T14:22:36;79.30;;;74.18;;
51838;SDS011;37886;53.174;6.368;2023-06-04T14:25:03;154.35;;;144.27;;